Time;durP1;ratioP1;P1;durP2;ratioP2;P2;SDS_P1;SDS_P2;PMS_P1;PMS_P2;Temp;Humidity;BMP_temperature;BMP_pressure;BME280_temperature;BME280_humidity;BME280_pressure;Samples;Min_cycle;Max_cycle;Signal;HPM_P1;HPM_P2
2021/08/03 00:00:23;;;;;;;2.67;1.35;;;;;;;13.98;100.00;101149.94;6276037;28;20048;-77
2021/08/03 00:03:29;;;;;;;2.38;1.30;;;;;;;14.01;100.00;101145.31;6275664;28;20052;-77
2021/08/03 00:06:32;;;;;;;3.33;1.48;;;;;;;14.07;100.00;101157.31;6275778;28;20041;-77
2021/08/03 00:09:33;;;;;;;4.30;1.63;;;;;;;14.07;100.00;101155.50;6275527;28;20132;-77
2021/08/03 00:12:35;;;;;;;2.17;1.40;;;;;;;14.09;99.97;101153.63;6275392;28;20048;-77
2021/08/03 00:15:38;;;;;;;2.88;1.58;;;;;;;14.15;99.55;101160.34;6275760;28;20075;-78
2021/08/03 00:18:42;;;;;;;2.95;1.30;;;;;;;14.18;99.22;101168.09;6275137;28;20052;-78
2021/08/03 00:21:43;;;;;;;2.03;1.45;;;;;;;14.19;99.08;101167.97;6275602;28;20047;-77
2021/08/03 00:24:45;;;;;;;3.88;1.35;;;;;;;14.22;98.04;101172.25;6275131;28;20053;-77
2021/08/03 00:27:47;;;;;;;7.68;1.70;;;;;;;14.25;97.36;101174.69;6275316;28;20057;-77
2021/08/03 00:30:49;;;;;;;3.53;1.50;;;;;;;14.27;97.13;101178.09;6274716;28;20056;-78
2021/08/03 00:33:54;;;;;;;4.05;1.50;;;;;;;14.26;97.32;101175.53;6274580;28;20052;-77
2021/08/03 00:36:55;;;;;;;2.58;1.60;;;;;;;14.27;97.38;101171.97;6275107;28;20095;-77
2021/08/03 00:39:57;;;;;;;4.00;1.60;;;;;;;14.28;97.04;101176.28;6274896;28;20053;-78
2021/08/03 00:42:58;;;;;;;4.53;1.77;;;;;;;14.09;98.34;101177.44;6274705;28;20424;-78
2021/08/03 00:45:59;;;;;;;4.25;1.73;;;;;;;14.06;98.69;101174.97;6275125;28;20049;-77
2021/08/03 00:49:02;;;;;;;3.75;1.80;;;;;;;14.14;98.98;101171.84;6274603;28;20499;-77
2021/08/03 00:52:05;;;;;;;3.40;1.33;;;;;;;14.15;99.82;101171.75;6274449;28;20049;-77
2021/08/03 00:55:07;;;;;;;4.43;1.92;;;;;;;14.12;99.58;101179.84;6274749;28;20053;-78
2021/08/03 00:58:09;;;;;;;4.43;2.10;;;;;;;13.99;100.00;101175.41;6273974;28;20481;-77
2021/08/03 01:01:11;;;;;;;3.55;1.98;;;;;;;13.92;100.00;101177.59;6274617;28;20433;-77
2021/08/03 01:04:15;;;;;;;5.10;2.10;;;;;;;13.90;100.00;101175.06;6274394;28;20053;-78
2021/08/03 01:07:28;;;;;;;5.60;2.17;;;;;;;13.85;100.00;101171.84;6274144;28;20203;-77
2021/08/03 01:10:38;;;;;;;4.05;1.75;;;;;;;13.99;100.00;101176.28;6274040;28;20052;-78
2021/08/03 01:13:51;;;;;;;6.78;1.92;;;;;;;14.14;100.00;101169.22;6273868;28;20052;-77
2021/08/03 01:16:57;;;;;;;6.43;1.90;;;;;;;14.20;100.00;101167.03;6274052;28;20061;-77
2021/08/03 01:20:06;;;;;;;3.00;1.80;;;;;;;14.28;100.00;101166.56;6274370;28;20044;-77
2021/08/03 01:23:39;;;;;;;4.85;1.90;;;;;;;14.33;100.00;101163.63;6273896;28;20049;-77
2021/08/03 01:26:57;;;;;;;3.67;1.73;;;;;;;14.32;100.00;101160.16;6273837;28;20423;-78
2021/08/03 01:30:00;;;;;;;3.92;1.95;;;;;;;14.30;100.00;101162.00;6273773;28;20056;-77
2021/08/03 01:33:03;;;;;;;4.57;2.00;;;;;;;14.25;100.00;101161.47;6273632;28;20052;-77
2021/08/03 01:36:05;;;;;;;4.25;1.67;;;;;;;14.24;100.00;101170.34;6273889;28;20049;-78
2021/08/03 01:39:07;;;;;;;6.65;1.95;;;;;;;14.19;100.00;101173.28;6274244;28;20040;-77
2021/08/03 01:42:11;;;;;;;2.83;1.83;;;;;;;14.11;100.00;101179.97;6276134;28;20053;-77
2021/08/03 01:45:15;;;;;;;4.28;2.03;;;;;;;14.13;100.00;101178.09;6276324;28;20049;-77
2021/08/03 01:48:17;;;;;;;5.20;2.00;;;;;;;14.13;100.00;101175.44;6275330;28;20053;-78
2021/08/03 01:51:19;;;;;;;6.72;2.60;;;;;;;14.14;100.00;101178.00;6275837;28;20045;-77
2021/08/03 01:54:21;;;;;;;4.18;2.00;;;;;;;14.15;100.00;101182.31;6273982;28;20424;-77
2021/08/03 01:57:24;;;;;;;5.78;2.20;;;;;;;14.19;100.00;101178.56;6273454;28;20053;-77
2021/08/03 02:00:27;;;;;;;3.65;1.73;;;;;;;14.17;100.00;101175.16;6273112;28;20496;-78
2021/08/03 02:03:30;;;;;;;3.47;1.77;;;;;;;14.18;100.00;101186.59;6273234;28;20045;-78
2021/08/03 02:06:31;;;;;;;8.10;2.20;;;;;;;14.08;100.00;101183.66;6273154;28;20053;-77
2021/08/03 02:09:33;;;;;;;5.43;2.08;;;;;;;13.99;100.00;101175.41;6273002;28;20048;-77
2021/08/03 02:12:36;;;;;;;4.68;2.25;;;;;;;13.88;100.00;101182.22;6272692;28;20052;-77
2021/08/03 02:15:40;;;;;;;2.83;2.15;;;;;;;13.92;100.00;101175.81;6273176;28;20052;-77
2021/08/03 02:18:45;;;;;;;6.43;2.42;;;;;;;13.97;100.00;101178.16;6272708;28;20049;-77
2021/08/03 02:21:47;;;;;;;3.75;2.10;;;;;;;13.98;100.00;101185.13;6274769;28;20049;-77
2021/08/03 02:24:49;;;;;;;5.65;2.08;;;;;;;13.94;100.00;101178.34;6275146;28;20053;-77
2021/08/03 02:27:51;;;;;;;4.47;1.85;;;;;;;13.93;100.00;101185.41;6274891;28;20044;-77
2021/08/03 02:31:00;;;;;;;4.07;1.92;;;;;;;13.90;100.00;101175.06;6275689;28;20057;-77
2021/08/03 02:34:07;;;;;;;7.00;2.27;;;;;;;13.89;100.00;101180.41;6274890;28;20049;-77
2021/08/03 02:37:12;;;;;;;5.43;2.42;;;;;;;13.86;100.00;101185.91;6275429;28;20049;-77
2021/08/03 02:40:14;;;;;;;4.63;1.88;;;;;;;13.84;100.00;101185.97;6274153;28;20458;-77
2021/08/03 02:43:19;;;;;;;2.75;1.98;;;;;;;13.81;100.00;101185.34;6274261;28;20523;-77
2021/08/03 02:46:24;;;;;;;5.50;2.20;;;;;;;13.76;100.00;101179.44;6272940;28;20049;-77
2021/08/03 02:49:34;;;;;;;3.40;2.30;;;;;;;13.73;100.00;101184.94;6274623;28;20045;-77
2021/08/03 02:52:38;;;;;;;5.75;2.20;;;;;;;13.67;100.00;101188.75;6277616;28;20526;-78
2021/08/03 02:55:46;;;;;;;5.32;2.40;;;;;;;13.69;100.00;101189.53;6277698;28;20049;-78
2021/08/03 02:58:52;;;;;;;5.07;2.00;;;;;;;13.73;100.00;101184.94;6277542;28;20512;-77
2021/08/03 03:01:57;;;;;;;7.18;2.22;;;;;;;13.71;100.00;101191.13;6277460;28;20467;-77
2021/08/03 03:05:03;;;;;;;4.85;2.45;;;;;;;13.74;100.00;101187.47;6277537;28;20049;-77
2021/08/03 03:08:08;;;;;;;4.03;2.17;;;;;;;13.80;100.00;101183.59;6277554;28;20049;-77
2021/08/03 03:11:11;;;;;;;4.13;2.42;;;;;;;13.81;100.00;101187.97;6277720;28;20454;-77
2021/08/03 03:14:13;;;;;;;4.50;2.55;;;;;;;13.84;100.00;101185.13;6277615;28;20052;-77
2021/08/03 03:17:17;;;;;;;3.78;2.63;;;;;;;13.83;100.00;101189.56;6278118;28;20053;-77
2021/08/03 03:20:19;;;;;;;5.65;2.53;;;;;;;13.79;100.00;101192.47;6277129;28;20053;-77
2021/08/03 03:23:23;;;;;;;4.90;2.95;;;;;;;13.76;100.00;101190.84;6276692;28;20053;-77
2021/08/03 03:26:26;;;;;;;5.38;2.28;;;;;;;13.73;100.00;101192.84;6277241;28;20059;-77
2021/08/03 03:29:28;;;;;;;5.20;2.25;;;;;;;13.67;100.00;101197.56;6276488;28;20075;-75
2021/08/03 03:32:33;;;;;;;7.00;2.60;;;;;;;13.63;100.00;101196.03;6276787;28;20056;-78
2021/08/03 03:35:36;;;;;;;6.50;2.90;;;;;;;13.64;100.00;101200.38;6277119;28;20060;-77
2021/08/03 03:38:42;;;;;;;6.03;2.65;;;;;;;13.63;100.00;101190.75;6276597;28;20045;-77
2021/08/03 03:41:46;;;;;;;5.30;2.60;;;;;;;13.64;100.00;101192.44;6276479;28;20056;-78
2021/08/03 03:44:47;;;;;;;5.38;2.78;;;;;;;13.64;100.00;101186.31;6276290;28;20041;-77
2021/08/03 03:47:56;;;;;;;5.13;2.67;;;;;;;13.62;100.00;101186.41;6276656;28;20060;-78
2021/08/03 03:51:00;;;;;;;6.30;2.72;;;;;;;13.61;100.00;101178.56;6276184;28;20535;-77
2021/08/03 03:54:04;;;;;;;3.05;2.13;;;;;;;13.61;100.00;101183.84;6276016;28;20091;-77
2021/08/03 03:57:09;;;;;;;8.48;2.80;;;;;;;13.62;100.00;101182.91;6276336;28;20045;-77
2021/08/03 04:00:14;;;;;;;3.63;2.58;;;;;;;13.64;100.00;101187.16;6274815;28;20543;-77
2021/08/03 04:03:20;;;;;;;5.65;2.35;;;;;;;13.65;100.00;101180.09;6274564;28;20068;-77
2021/08/03 04:06:21;;;;;;;3.35;2.20;;;;;;;13.64;100.00;101189.81;6274944;28;20056;-77
2021/08/03 04:09:25;;;;;;;6.00;2.55;;;;;;;13.65;100.00;101183.59;6275025;28;20049;-77
2021/08/03 04:12:26;;;;;;;3.83;2.40;;;;;;;13.68;100.00;101188.69;6274463;28;20492;-75
2021/08/03 04:15:28;;;;;;;7.45;2.30;;;;;;;13.71;100.00;101188.50;6274648;28;20049;-76
2021/08/03 04:18:31;;;;;;;5.57;2.40;;;;;;;13.70;100.00;101188.59;6274645;28;20056;-76
2021/08/03 04:21:32;;;;;;;6.88;2.78;;;;;;;13.72;100.00;101184.09;6274411;28;20052;-76
2021/08/03 04:24:33;;;;;;;8.50;2.50;;;;;;;13.73;100.00;101180.50;6273906;28;20041;-76
2021/08/03 04:27:35;;;;;;;5.45;2.70;;;;;;;13.77;100.00;101182.00;6273928;28;20044;-75
2021/08/03 04:30:36;;;;;;;5.50;2.45;;;;;;;13.79;100.00;101185.41;6273972;28;20049;-77
2021/08/03 04:33:39;;;;;;;6.38;2.78;;;;;;;13.80;100.00;101180.97;6274016;28;20049;-77
2021/08/03 04:36:40;;;;;;;7.30;3.28;;;;;;;13.82;100.00;101193.16;6274062;28;20052;-77
2021/08/03 04:39:41;;;;;;;7.15;3.40;;;;;;;13.82;100.00;101182.59;6273929;28;20060;-77
2021/08/03 04:42:44;;;;;;;6.28;2.95;;;;;;;13.84;100.00;101199.19;6273722;28;20178;-77
2021/08/03 04:45:45;;;;;;;3.67;3.20;;;;;;;13.84;100.00;101199.19;6273844;28;20052;-76
2021/08/03 04:48:48;;;;;;;6.63;3.33;;;;;;;13.82;100.00;101197.59;6273383;28;20416;-77
2021/08/03 04:51:49;;;;;;;8.60;3.38;;;;;;;13.82;100.00;101201.09;6273621;28;20613;-77
2021/08/03 04:54:50;;;;;;;7.75;3.38;;;;;;;13.84;100.00;101204.47;6272975;28;20455;-76
2021/08/03 04:57:53;;;;;;;6.63;3.50;;;;;;;13.86;100.00;101197.31;6271987;28;20052;-76
2021/08/03 05:00:54;;;;;;;6.15;3.85;;;;;;;13.87;100.00;101206.09;6271425;28;20428;-77
2021/08/03 05:03:57;;;;;;;7.60;3.10;;;;;;;13.88;100.00;101195.41;6270553;28;20657;-76
2021/08/03 05:06:58;;;;;;;6.90;3.88;;;;;;;13.86;100.00;101205.25;6271648;28;20048;-77
2021/08/03 05:10:04;;;;;;;4.85;3.05;;;;;;;13.85;100.00;101202.66;6271606;28;20744;-76
2021/08/03 05:13:05;;;;;;;10.88;3.55;;;;;;;13.83;100.00;101205.41;6270958;28;20048;-76
2021/08/03 05:16:06;;;;;;;9.23;3.30;;;;;;;13.83;100.00;101205.41;6271380;28;20047;-77
2021/08/03 05:19:09;;;;;;;5.15;3.40;;;;;;;13.82;100.00;101206.38;6272094;28;20045;-77
2021/08/03 05:22:10;;;;;;;7.82;3.80;;;;;;;13.81;100.00;101198.53;6272705;28;20049;-77
2021/08/03 05:25:13;;;;;;;9.25;3.50;;;;;;;13.82;100.00;101202.88;6273013;28;20052;-76
2021/08/03 05:28:14;;;;;;;8.55;3.70;;;;;;;13.82;100.00;101200.22;6272600;28;20698;-77
2021/08/03 05:31:15;;;;;;;10.30;4.35;;;;;;;13.75;100.00;101202.38;6272201;28;20048;-76
2021/08/03 05:34:18;;;;;;;5.97;4.30;;;;;;;13.74;100.00;101200.69;6272538;28;20049;-77
2021/08/03 05:37:19;;;;;;;6.78;3.22;;;;;;;13.80;100.00;101207.38;6272377;28;20056;-75
2021/08/03 05:40:21;;;;;;;7.93;3.65;;;;;;;13.78;100.00;101211.91;6272540;28;20048;-75
2021/08/03 05:43:22;;;;;;;6.95;3.75;;;;;;;13.73;100.00;101204.28;6272146;28;20385;-77
2021/08/03 05:46:23;;;;;;;9.25;3.55;;;;;;;13.76;100.00;101211.16;6272627;28;20045;-77
2021/08/03 05:49:26;;;;;;;5.28;3.53;;;;;;;13.83;100.00;101199.28;6270391;28;20421;-76
2021/08/03 05:52:28;;;;;;;9.30;4.80;;;;;;;13.82;100.00;101214.28;6271084;28;20059;-78
2021/08/03 05:55:29;;;;;;;9.20;4.70;;;;;;;13.87;100.00;101214.00;6271008;28;20060;-77
2021/08/03 05:58:30;;;;;;;8.75;4.40;;;;;;;13.95;100.00;101204.69;6271962;28;20067;-78
2021/08/03 06:01:32;;;;;;;13.50;5.05;;;;;;;13.93;100.00;101206.56;6271069;28;20052;-77
2021/08/03 06:04:34;;;;;;;7.47;4.35;;;;;;;14.01;100.00;101203.47;6269541;28;20496;-77
2021/08/03 06:07:41;;;;;;;10.35;4.72;;;;;;;14.14;100.00;101211.50;6271811;28;20045;-77
2021/08/03 06:10:45;;;;;;;9.32;3.90;;;;;;;14.21;100.00;101202.25;6271564;28;20435;-77
2021/08/03 06:13:49;;;;;;;9.95;4.60;;;;;;;14.28;100.00;101200.09;6270670;28;20045;-77
2021/08/03 06:16:53;;;;;;;6.95;4.00;;;;;;;14.35;100.00;101191.69;6271963;28;20126;-77
2021/08/03 06:19:56;;;;;;;12.07;3.65;;;;;;;14.47;100.00;101201.47;6271680;28;20190;-77
2021/08/03 06:23:00;;;;;;;5.03;3.22;;;;;;;14.53;100.00;101199.44;6271511;28;20071;-77
2021/08/03 06:26:01;;;;;;;6.40;3.28;;;;;;;14.52;100.00;101205.69;6271753;28;20056;-77
2021/08/03 06:29:03;;;;;;;5.78;2.95;;;;;;;14.54;100.00;101198.50;6271575;28;20146;-77
2021/08/03 06:32:06;;;;;;;11.07;2.65;;;;;;;14.59;100.00;101209.66;6271638;28;20053;-77
2021/08/03 06:35:11;;;;;;;3.50;1.95;;;;;;;14.63;100.00;101201.44;6271324;28;20055;-77
2021/08/03 06:38:13;;;;;;;5.95;2.50;;;;;;;14.70;100.00;101215.09;6271730;28;20052;-77
2021/08/03 06:41:23;;;;;;;4.95;2.15;;;;;;;14.71;99.62;101196.47;6271549;28;20045;-78
2021/08/03 06:44:32;;;;;;;9.13;1.95;;;;;;;14.76;100.00;101201.50;6271611;28;20060;-77
2021/08/03 06:47:39;;;;;;;6.97;2.45;;;;;;;14.82;100.00;101200.25;6271572;28;20060;-77
2021/08/03 06:50:48;;;;;;;7.65;1.63;;;;;;;14.87;100.00;101199.00;6271185;28;20792;-77
2021/08/03 06:53:51;;;;;;;11.20;2.35;;;;;;;14.93;100.00;101203.06;6270895;28;20527;-77
2021/08/03 06:56:55;;;;;;;3.17;2.00;;;;;;;15.00;99.60;101201.72;6270995;28;20049;-77
2021/08/03 07:00:02;;;;;;;9.00;1.90;;;;;;;15.02;98.32;101194.50;6268535;28;20049;-77
2021/08/03 07:03:04;;;;;;;5.03;1.20;;;;;;;15.05;96.80;101204.06;6270579;28;20049;-77
2021/08/03 07:06:09;;;;;;;5.72;1.95;;;;;;;15.05;96.55;101201.44;6269744;28;20056;-78
2021/08/03 07:09:11;;;;;;;6.53;1.67;;;;;;;15.01;96.62;101195.47;6270925;28;20053;-77
2021/08/03 07:12:14;;;;;;;4.13;1.48;;;;;;;15.09;96.75;101203.78;6270756;28;20049;-77
2021/08/03 07:15:15;;;;;;;2.38;1.48;;;;;;;15.09;95.16;101200.28;6270333;28;20056;-76
2021/08/03 07:18:20;;;;;;;3.50;1.30;;;;;;;15.09;95.62;101193.19;6270814;28;20056;-78
2021/08/03 07:21:24;;;;;;;3.72;1.40;;;;;;;15.18;94.77;101197.88;6270455;28;20048;-77
2021/08/03 07:24:27;;;;;;;2.70;1.80;;;;;;;15.34;95.01;101205.66;6268529;28;20053;-77
2021/08/03 07:27:28;;;;;;;1.92;0.95;;;;;;;15.29;92.15;101201.59;6270133;28;20045;-77
2021/08/03 07:30:29;;;;;;;2.10;0.88;;;;;;;15.28;89.85;101198.13;6270016;28;20431;-78
2021/08/03 07:33:31;;;;;;;5.07;1.50;;;;;;;15.30;91.42;101201.50;6270056;28;20053;-77
2021/08/03 07:36:36;;;;;;;1.92;1.40;;;;;;;15.32;91.67;101196.13;6273709;28;20053;-77
2021/08/03 07:39:39;;;;;;;4.68;1.20;;;;;;;15.35;92.51;101191.47;6274817;28;20511;-77
2021/08/03 07:42:41;;;;;;;3.63;1.45;;;;;;;15.42;93.41;101190.09;6275543;28;20056;-78
2021/08/03 07:45:42;;;;;;;2.38;1.30;;;;;;;15.52;93.87;101192.13;6276216;28;20048;-77
2021/08/03 07:48:49;;;;;;;2.30;1.23;;;;;;;15.55;91.42;101192.78;6275498;28;20060;-78
2021/08/03 07:51:52;;;;;;;3.30;0.88;;;;;;;15.61;90.98;101192.38;6275762;28;20045;-78
2021/08/03 07:54:54;;;;;;;4.55;1.00;;;;;;;15.64;89.81;101183.41;6274618;28;20127;-78
2021/08/03 07:57:55;;;;;;;4.75;1.17;;;;;;;15.64;88.72;101181.59;6274858;28;20102;-78
2021/08/03 08:00:57;;;;;;;5.20;1.00;;;;;;;15.67;88.83;101175.25;6274747;28;20049;-77
2021/08/03 08:03:58;;;;;;;3.25;0.90;;;;;;;15.76;88.20;101179.06;6275105;28;20045;-79
2021/08/03 08:07:01;;;;;;;1.67;0.75;;;;;;;15.71;86.44;101182.03;6275234;28;20407;-78
2021/08/03 08:10:02;;;;;;;3.67;1.13;;;;;;;15.72;86.66;101181.09;6278498;28;20049;-78
2021/08/03 08:13:04;;;;;;;3.05;1.00;;;;;;;15.81;87.94;101182.28;6284924;28;20048;-78
2021/08/03 08:16:06;;;;;;;2.63;1.33;;;;;;;15.94;87.35;101175.16;6284161;28;20229;-78
2021/08/03 08:19:07;;;;;;;4.13;0.95;;;;;;;16.01;85.48;101165.84;6289354;28;20052;-79
2021/08/03 08:22:10;;;;;;;3.05;1.10;;;;;;;16.10;86.34;101164.34;6297253;28;20059;-80
2021/08/03 08:25:12;;;;;;;0.75;0.63;;;;;;;16.21;86.67;101167.06;6280298;28;20049;-77
2021/08/03 08:28:14;;;;;;;4.72;1.02;;;;;;;16.32;85.16;101166.34;6274886;28;20049;-80
2021/08/03 08:31:16;;;;;;;1.70;0.85;;;;;;;16.47;84.06;101158.13;6282684;28;20059;-81
2021/08/03 08:34:18;;;;;;;4.20;1.10;;;;;;;16.49;82.20;101163.34;6299715;28;20059;-81
2021/08/03 08:37:21;;;;;;;5.43;0.80;;;;;;;16.52;80.55;101164.91;6295383;28;20048;-79
2021/08/03 08:40:23;;;;;;;9.18;1.48;;;;;;;16.48;81.29;101164.28;6274718;28;20052;-79
2021/08/03 08:43:25;;;;;;;5.38;1.08;;;;;;;16.52;81.54;101159.59;6273995;28;20045;-78
2021/08/03 08:46:27;;;;;;;2.45;0.70;;;;;;;16.54;82.07;101158.56;6273716;28;20060;-78
2021/08/03 08:49:29;;;;;;;1.90;0.80;;;;;;;16.55;80.53;101160.25;6273795;28;20041;-79
2021/08/03 08:52:33;;;;;;;3.72;0.70;;;;;;;16.56;79.68;101153.97;6273667;28;20055;-79
2021/08/03 08:55:35;;;;;;;2.72;0.80;;;;;;;16.58;79.51;101149.41;6273769;28;20416;-79
2021/08/03 08:58:38;;;;;;;5.05;1.00;;;;;;;16.62;81.15;101152.66;6274156;28;20056;-79
2021/08/03 09:01:39;;;;;;;1.98;0.80;;;;;;;16.62;81.69;101156.19;6274218;28;20146;-78
2021/08/03 09:04:42;;;;;;;2.25;1.05;;;;;;;16.60;79.42;101152.78;6273363;28;20496;-79
2021/08/03 09:07:50;;;;;;;4.85;0.57;;;;;;;16.60;79.17;101150.13;6273514;28;20052;-79
2021/08/03 09:10:51;;;;;;;2.75;0.90;;;;;;;16.69;81.06;101151.28;6273109;28;20049;-78
2021/08/03 09:13:55;;;;;;;4.18;0.70;;;;;;;16.86;77.78;101145.63;6271919;28;20052;-76
2021/08/03 09:16:59;;;;;;;4.82;0.80;;;;;;;16.95;75.46;101150.25;6273037;28;20099;-76
2021/08/03 09:20:13;;;;;;;2.65;0.70;;;;;;;16.97;75.39;101137.72;6272856;28;20060;-76
2021/08/03 09:23:16;;;;;;;0.73;0.68;;;;;;;17.07;74.53;101137.03;6272537;28;20051;-77
2021/08/03 09:26:19;;;;;;;2.47;0.88;;;;;;;17.18;74.19;101139.75;6270818;28;20056;-80
2021/08/03 09:29:20;;;;;;;4.03;0.90;;;;;;;17.17;72.59;101138.91;6271591;28;20045;-79
2021/08/03 09:32:29;;;;;;;3.63;0.80;;;;;;;17.13;71.86;101136.59;6270850;28;20060;-78
2021/08/03 09:35:31;;;;;;;2.53;1.00;;;;;;;17.20;71.65;101138.66;6273088;28;20045;-78
2021/08/03 09:38:35;;;;;;;4.88;0.88;;;;;;;17.16;71.12;101137.19;6271816;28;20551;-78
2021/08/03 09:41:47;;;;;;;1.77;0.90;;;;;;;17.18;68.52;101142.41;6272841;28;20423;-77
2021/08/03 09:44:50;;;;;;;3.15;0.85;;;;;;;17.19;69.51;101144.94;6270918;28;20094;-77
2021/08/03 09:47:52;;;;;;;1.67;0.68;;;;;;;17.23;69.64;101140.25;6271015;28;20052;-78
2021/08/03 09:50:56;;;;;;;1.33;0.90;;;;;;;17.43;67.16;101136.91;6271869;28;20041;-78
2021/08/03 09:54:01;;;;;;;3.08;0.93;;;;;;;17.52;66.16;101130.06;6272419;28;20559;-79
2021/08/03 09:57:03;;;;;;;2.05;0.70;;;;;;;17.63;66.13;101129.25;6272332;28;20041;-78
2021/08/03 10:00:25;;;;;;;2.85;1.00;;;;;;;17.65;68.74;101116.69;6296254;22;20055;-80
2021/08/03 10:03:26;;;;;;;2.15;0.80;;;;;;;17.70;69.09;101123.31;6284479;28;20060;-79
2021/08/03 10:06:28;;;;;;;3.13;0.80;;;;;;;17.63;68.14;101113.31;6282652;28;20044;-80
2021/08/03 10:09:34;;;;;;;3.67;0.90;;;;;;;17.60;67.99;101113.53;6269584;28;20064;-78
2021/08/03 10:12:36;;;;;;;6.40;1.60;;;;;;;17.62;69.94;101116.91;6260565;28;20060;-76
2021/08/03 10:15:38;;;;;;;2.72;1.10;;;;;;;17.76;68.11;101111.44;6251944;28;20064;-75
2021/08/03 10:18:41;;;;;;;2.30;1.00;;;;;;;17.84;68.88;101110.81;6255119;28;20055;-75
2021/08/03 10:21:46;;;;;;;2.63;0.75;;;;;;;18.03;70.29;101103.06;6270656;28;20052;-84
2021/08/03 10:24:57;;;;;;;3.83;0.88;;;;;;;18.17;65.03;101100.19;6268147;28;20121;-77
2021/08/03 10:27:59;;;;;;;7.97;1.40;;;;;;;18.12;67.66;101102.38;6264444;28;20084;-80
2021/08/03 10:31:00;;;;;;;2.20;0.88;;;;;;;18.19;65.13;101110.69;6258728;28;20409;-80
2021/08/03 10:34:01;;;;;;;3.42;1.30;;;;;;;18.17;66.97;101110.00;6260760;28;20424;-80
2021/08/03 10:37:03;;;;;;;7.13;1.10;;;;;;;18.15;65.81;101096.78;6263745;28;20037;-80
2021/08/03 10:40:07;;;;;;;2.13;1.10;;;;;;;18.27;62.97;101096.78;6262745;28;20045;-81
2021/08/03 10:43:15;;;;;;;4.28;0.77;;;;;;;18.23;66.21;101099.69;6269008;28;20053;-82
2021/08/03 10:46:41;;;;;;;1.83;0.73;;;;;;;18.25;64.24;101097.75;6282963;28;20054;-81
2021/08/03 10:49:56;;;;;;;2.40;0.93;;;;;;;18.32;66.54;101097.25;6278909;28;20029;-81
2021/08/03 10:53:02;;;;;;;2.03;0.85;;;;;;;18.50;64.50;101088.63;6280294;28;20049;-81
2021/08/03 10:56:05;;;;;;;2.70;1.13;;;;;;;18.59;62.11;101089.72;6280934;28;20072;-80
2021/08/03 10:59:34;;;;;;;3.88;1.38;;;;;;;18.62;63.61;101085.94;6267447;28;20046;-82
2021/08/03 11:02:46;;;;;;;3.50;1.08;;;;;;;18.63;64.13;101080.50;6268153;28;20044;-81
2021/08/03 11:05:47;;;;;;;3.25;1.10;;;;;;;18.87;68.34;101090.13;6276379;28;20025;-81
2021/08/03 11:08:49;;;;;;;8.80;1.00;;;;;;;19.10;67.79;101088.22;6280777;28;20033;-80
2021/08/03 11:11:51;;;;;;;2.85;0.90;;;;;;;19.14;65.30;101087.84;6285468;28;20045;-81
2021/08/03 11:14:53;;;;;;;3.33;1.00;;;;;;;19.04;64.55;101081.59;6291363;28;20047;-81
2021/08/03 11:17:56;;;;;;;2.20;1.00;;;;;;;18.99;63.70;101092.63;6299777;28;20052;-84
2021/08/03 11:21:05;;;;;;;3.47;0.88;;;;;;;18.83;64.79;101081.53;6298523;28;20033;-82
2021/08/03 11:24:09;;;;;;;1.55;0.82;;;;;;;18.86;65.14;101083.13;6299176;28;20052;-82
2021/08/03 11:27:24;;;;;;;6.88;1.00;;;;;;;18.89;65.00;101086.34;6296794;28;20071;-82
2021/08/03 11:30:26;;;;;;;5.55;1.02;;;;;;;18.83;65.51;101083.38;6299095;28;20136;-82
2021/08/03 11:33:28;;;;;;;4.53;1.10;;;;;;;18.80;66.22;101089.78;6299452;28;20045;-82
2021/08/03 11:36:29;;;;;;;11.13;1.83;;;;;;;18.73;63.16;101078.81;6297935;28;20045;-83
2021/08/03 11:39:33;;;;;;;2.08;0.90;;;;;;;18.67;64.18;101081.94;6300304;28;20052;-81
2021/08/03 11:42:38;;;;;;;2.22;1.00;;;;;;;18.64;64.92;101073.34;6297915;28;20045;-82
2021/08/03 11:45:40;;;;;;;6.57;0.98;;;;;;;18.58;65.59;101072.06;6297185;28;20044;-82
2021/08/03 11:48:42;;;;;;;3.03;0.93;;;;;;;18.63;63.04;101082.31;6295410;28;20106;-82
2021/08/03 11:51:46;;;;;;;2.40;0.85;;;;;;;18.68;64.17;101080.13;6297497;28;20068;-83
2021/08/03 11:54:50;;;;;;;1.73;0.75;;;;;;;18.72;66.23;101073.63;6289888;28;20045;-81
2021/08/03 11:57:53;;;;;;;2.55;1.00;;;;;;;18.83;65.37;101065.56;6288889;28;20107;-75
2021/08/03 12:00:59;;;;;;;3.65;1.10;;;;;;;18.87;63.21;101071.50;6292333;28;20056;-84
2021/08/03 12:04:13;;;;;;;1.73;0.88;;;;;;;18.99;62.25;101059.81;6289514;28;20197;-82
2021/08/03 12:07:16;;;;;;;2.33;0.75;;;;;;;19.18;62.29;101062.63;6296453;28;20060;-80
2021/08/03 12:10:18;;;;;;;3.03;1.15;;;;;;;19.29;61.08;101063.53;6282096;28;20055;-83
2021/08/03 12:13:29;;;;;;;5.07;0.90;;;;;;;19.32;61.86;101060.59;6295705;28;20072;-83
2021/08/03 12:16:32;;;;;;;4.43;0.93;;;;;;;19.40;60.17;101060.81;6294350;28;20060;-82
2021/08/03 12:19:35;;;;;;;2.53;1.02;;;;;;;19.45;58.57;101059.44;6295627;28;20102;-81
2021/08/03 12:22:36;;;;;;;3.38;1.17;;;;;;;19.46;59.39;101052.28;6283490;28;20100;-82
2021/08/03 12:25:47;;;;;;;1.58;0.82;;;;;;;19.45;58.46;101050.59;6271292;28;20045;-80
2021/08/03 12:28:55;;;;;;;2.35;1.00;;;;;;;19.31;57.19;101043.78;6275544;28;20045;-81
2021/08/03 12:31:57;;;;;;;6.75;1.17;;;;;;;19.33;58.12;101049.81;6263730;28;20056;-80
2021/08/03 12:35:08;;;;;;;4.30;1.02;;;;;;;19.16;57.73;101043.25;6274309;28;20041;-81
2021/08/03 12:38:12;;;;;;;4.78;0.95;;;;;;;19.16;56.25;101053.06;6265037;28;20417;-80
2021/08/03 12:41:15;;;;;;;2.25;1.20;;;;;;;19.14;56.78;101042.53;6278066;28;20045;-80
2021/08/03 12:44:31;;;;;;;5.50;1.00;;;;;;;19.15;61.12;101038.88;6273965;28;20074;-80
2021/08/03 12:47:33;;;;;;;2.72;1.08;;;;;;;19.14;54.37;101041.69;6266299;28;20057;-80
2021/08/03 12:50:47;;;;;;;1.55;0.95;;;;;;;19.11;56.01;101034.78;6267134;28;20055;-80
2021/08/03 12:53:48;;;;;;;2.03;0.98;;;;;;;19.08;55.63;101036.91;6272047;28;20056;-80
2021/08/03 12:56:54;;;;;;;5.38;1.15;;;;;;;19.10;57.64;101032.28;6262780;28;20041;-80
2021/08/03 12:59:57;;;;;;;3.08;1.10;;;;;;;18.97;60.35;101027.97;6270465;28;20052;-80
2021/08/03 13:03:00;;;;;;;2.67;1.00;;;;;;;18.87;57.71;101029.72;6268830;28;20416;-80
2021/08/03 13:06:04;;;;;;;6.13;0.93;;;;;;;18.87;55.65;101024.41;6273269;28;20042;-82
2021/08/03 13:09:06;;;;;;;3.33;1.20;;;;;;;18.94;57.00;101033.56;6267764;28;20045;-80
2021/08/03 13:12:09;;;;;;;2.00;0.95;;;;;;;19.14;54.36;101039.03;6246554;28;20064;-82
2021/08/03 13:15:12;;;;;;;2.20;0.90;;;;;;;19.13;53.89;101038.19;6247822;28;20044;-80
2021/08/03 13:18:13;;;;;;;4.43;1.20;;;;;;;19.20;55.74;101033.16;6248723;28;20046;-81
2021/08/03 13:21:15;;;;;;;2.38;1.00;;;;;;;19.17;52.85;101023.63;6244624;28;20425;-79
2021/08/03 13:24:16;;;;;;;4.70;1.08;;;;;;;19.13;54.37;101024.03;6279235;28;20056;-80
2021/08/03 13:27:17;;;;;;;3.15;1.02;;;;;;;19.08;54.85;101021.75;6281670;28;20055;-81
2021/08/03 13:30:20;;;;;;;2.70;0.90;;;;;;;19.16;56.23;101026.41;6297787;28;20045;-80
2021/08/03 13:33:21;;;;;;;1.33;1.00;;;;;;;19.24;58.68;101023.94;6287296;28;20049;-80
2021/08/03 13:36:23;;;;;;;1.83;0.90;;;;;;;19.30;58.25;101014.56;6291604;28;20060;-80
2021/08/03 13:39:24;;;;;;;3.08;1.38;;;;;;;19.34;55.81;101016.84;6291513;28;20049;-80
2021/08/03 13:42:26;;;;;;;3.45;1.00;;;;;;;19.45;56.29;101019.44;6294400;28;20040;-80
2021/08/03 13:45:29;;;;;;;5.10;1.08;;;;;;;19.50;56.42;101006.56;6283155;28;20037;-79
2021/08/03 13:48:31;;;;;;;1.90;0.95;;;;;;;19.53;54.84;101010.78;6278054;28;20124;-81
2021/08/03 13:51:32;;;;;;;2.65;1.15;;;;;;;19.60;57.57;101003.97;6284119;28;20053;-81
2021/08/03 13:54:34;;;;;;;4.03;1.08;;;;;;;19.68;55.15;101005.97;6271808;28;20412;-81
2021/08/03 13:57:35;;;;;;;2.17;0.80;;;;;;;19.76;53.21;101003.47;6285670;28;20049;-80
2021/08/03 14:00:38;;;;;;;2.58;1.17;;;;;;;19.76;53.27;101007.00;6274810;28;20045;-81
2021/08/03 14:03:39;;;;;;;3.72;1.00;;;;;;;19.73;54.33;101004.59;6288099;28;20048;-80
2021/08/03 14:06:41;;;;;;;2.40;1.23;;;;;;;19.72;56.34;101000.22;6294203;28;20036;-82
2021/08/03 14:09:42;;;;;;;4.60;1.00;;;;;;;19.92;53.90;100994.94;6291151;28;20049;-80